createdAt,value
2022-11-27T00:01:33.649Z,4.43
2022-11-27T00:04:00.392Z,3.90
2022-11-27T00:06:28.989Z,5.10
2022-11-27T00:08:57.823Z,3.97
2022-11-27T00:11:26.113Z,4.03
2022-11-27T00:13:53.191Z,2.40
2022-11-27T00:16:21.524Z,3.28
2022-11-27T00:18:48.853Z,2.50
2022-11-27T00:21:22.492Z,3.15
2022-11-27T00:23:49.660Z,4.75
2022-11-27T00:26:16.291Z,2.42
2022-11-27T00:28:43.320Z,4.28
2022-11-27T00:31:16.190Z,2.30
2022-11-27T00:33:42.862Z,2.30
2022-11-27T00:36:10.128Z,5.05
2022-11-27T00:38:39.162Z,2.65
2022-11-27T00:41:11.368Z,2.72
2022-11-27T00:43:44.247Z,2.80
2022-11-27T00:46:25.365Z,2.38
2022-11-27T00:48:55.057Z,2.72
2022-11-27T00:51:23.640Z,2.75
2022-11-27T00:53:50.752Z,3.55
2022-11-27T00:56:23.542Z,2.88
2022-11-27T00:58:50.997Z,3.38
2022-11-27T01:01:27.478Z,1.95
2022-11-27T01:03:56.200Z,3.22
2022-11-27T01:06:22.888Z,2.08
2022-11-27T01:08:49.522Z,2.05
2022-11-27T01:11:19.783Z,2.63
2022-11-27T01:13:47.129Z,2.75
2022-11-27T01:16:17.270Z,2.63
2022-11-27T01:18:45.648Z,3.25
2022-11-27T01:21:13.238Z,3.25
2022-11-27T01:23:40.134Z,3.13
2022-11-27T01:26:08.898Z,3.13
2022-11-27T01:28:35.892Z,2.30
2022-11-27T01:31:14.651Z,3.22
2022-11-27T01:33:41.268Z,3.13
2022-11-27T01:36:08.922Z,2.45
2022-11-27T01:38:35.972Z,2.03
2022-11-27T01:41:04.249Z,2.42
2022-11-27T01:43:50.288Z,2.45
2022-11-27T01:46:32.364Z,2.40
2022-11-27T01:49:09.412Z,1.70
2022-11-27T01:51:39.757Z,1.65
2022-11-27T01:54:07.776Z,3.05
2022-11-27T01:56:35.326Z,2.15
2022-11-27T01:59:03.426Z,2.25
2022-11-27T02:01:30.116Z,2.45
2022-11-27T02:04:00.562Z,3.10
2022-11-27T02:06:27.938Z,2.88
2022-11-27T02:08:56.029Z,2.92
2022-11-27T02:11:46.826Z,2.67
2022-11-27T02:14:54.899Z,2.53
2022-11-27T02:17:30.230Z,3.53
2022-11-27T02:20:27.465Z,1.85
2022-11-27T02:23:24.851Z,2.15
2022-11-27T02:26:19.467Z,2.45
2022-11-27T02:29:08.355Z,2.38
2022-11-27T02:31:41.056Z,2.35
2022-11-27T02:34:30.561Z,1.83
2022-11-27T02:37:13.710Z,1.98
2022-11-27T02:39:55.454Z,2.08
2022-11-27T02:42:22.590Z,1.73
2022-11-27T02:44:57.099Z,2.30
2022-11-27T02:47:24.219Z,2.22
2022-11-27T02:49:52.937Z,1.67
2022-11-27T02:52:20.418Z,2.08
2022-11-27T02:54:50.041Z,2.38
2022-11-27T02:57:19.901Z,1.98
2022-11-27T02:59:48.506Z,2.97
2022-11-27T03:02:20.658Z,2.65
2022-11-27T03:04:53.820Z,2.55
2022-11-27T03:07:45.795Z,1.85
2022-11-27T03:10:20.802Z,1.67
2022-11-27T03:12:48.819Z,1.80
2022-11-27T03:15:15.589Z,2.10
2022-11-27T03:18:06.726Z,1.75
2022-11-27T03:20:39.081Z,2.07
2022-11-27T03:23:05.685Z,2.40
2022-11-27T03:25:32.588Z,2.25
2022-11-27T03:28:03.081Z,1.70
2022-11-27T03:30:29.853Z,2.25
2022-11-27T03:32:56.649Z,2.38
2022-11-27T03:35:25.739Z,2.00
2022-11-27T03:37:53.093Z,2.00
2022-11-27T03:40:22.929Z,2.72
2022-11-27T03:43:09.764Z,2.42
2022-11-27T03:46:05.916Z,1.65
2022-11-27T03:48:38.241Z,1.83
2022-11-27T03:51:17.885Z,3.08
2022-11-27T03:53:54.940Z,2.45
2022-11-27T03:56:56.025Z,2.35
2022-11-27T03:59:30.183Z,1.80
2022-11-27T04:01:56.949Z,1.88
2022-11-27T04:04:23.651Z,2.08
2022-11-27T04:06:50.289Z,1.83
2022-11-27T04:09:16.986Z,1.98
2022-11-27T04:11:43.572Z,2.13
2022-11-27T04:14:10.176Z,2.00
2022-11-27T04:16:36.941Z,2.25
2022-11-27T04:19:04.170Z,3.40
2022-11-27T04:21:30.733Z,2.13
2022-11-27T04:23:57.335Z,1.90
2022-11-27T04:26:24.652Z,1.88
2022-11-27T04:28:51.252Z,2.00
2022-11-27T04:31:18.116Z,1.58
2022-11-27T04:33:44.763Z,1.85
2022-11-27T04:36:11.305Z,2.80
2022-11-27T04:38:37.913Z,2.53
2022-11-27T04:41:04.693Z,1.45
2022-11-27T04:43:31.275Z,1.88
2022-11-27T04:45:57.844Z,2.22
2022-11-27T04:48:24.446Z,2.35
2022-11-27T04:50:50.980Z,1.77
2022-11-27T04:53:17.547Z,2.72
2022-11-27T04:55:44.140Z,2.03
2022-11-27T04:58:10.694Z,1.67
2022-11-27T05:00:37.391Z,2.20
2022-11-27T05:03:04.090Z,1.50
2022-11-27T05:05:30.787Z,2.38
2022-11-27T05:07:57.503Z,2.45
2022-11-27T05:10:24.211Z,2.05
2022-11-27T05:12:51.017Z,1.52
2022-11-27T05:15:17.616Z,1.70
2022-11-27T05:17:44.171Z,2.40
2022-11-27T05:20:11.101Z,2.40
2022-11-27T05:22:37.730Z,2.53
2022-11-27T05:25:04.543Z,2.20
2022-11-27T05:27:31.190Z,1.70
2022-11-27T05:29:58.035Z,1.70
2022-11-27T05:32:25.052Z,1.70
2022-11-27T05:34:51.655Z,2.00
2022-11-27T05:37:20.011Z,1.60
2022-11-27T05:39:47.212Z,1.90
2022-11-27T05:42:13.858Z,1.75
2022-11-27T05:44:40.698Z,1.80
2022-11-27T05:47:07.651Z,2.00
2022-11-27T05:49:34.443Z,1.73
2022-11-27T05:52:00.998Z,2.05
2022-11-27T05:54:27.633Z,2.03
2022-11-27T05:56:54.195Z,1.92
2022-11-27T05:59:20.863Z,2.10
2022-11-27T06:01:49.245Z,2.25
2022-11-27T06:04:15.927Z,2.17
2022-11-27T06:06:42.468Z,1.90
2022-11-27T06:09:12.774Z,2.45
2022-11-27T06:11:40.927Z,3.88
2022-11-27T06:14:08.999Z,2.25
2022-11-27T06:16:35.698Z,2.83
2022-11-27T06:19:02.334Z,2.60
2022-11-27T06:21:28.923Z,1.85
2022-11-27T06:23:57.048Z,1.90
2022-11-27T06:26:26.890Z,2.00
2022-11-27T06:28:55.158Z,2.13
2022-11-27T06:31:25.356Z,3.75
2022-11-27T06:33:53.520Z,3.00
2022-11-27T06:36:22.587Z,3.97
2022-11-27T06:38:49.497Z,2.30
2022-11-27T06:41:18.913Z,2.47
2022-11-27T06:43:46.695Z,2.72
2022-11-27T06:46:16.111Z,3.00
2022-11-27T06:48:44.153Z,2.55
2022-11-27T06:51:13.235Z,2.20
2022-11-27T06:53:40.682Z,2.58
2022-11-27T06:56:09.791Z,2.80
2022-11-27T06:58:37.305Z,2.17
2022-11-27T07:01:06.947Z,2.33
2022-11-27T07:03:34.079Z,2.53
2022-11-27T07:06:01.981Z,1.85
2022-11-27T07:08:28.863Z,1.88
2022-11-27T07:11:05.005Z,2.30
2022-11-27T07:13:31.921Z,1.67
2022-11-27T07:16:07.431Z,2.10
2022-11-27T07:18:39.883Z,1.92
2022-11-27T07:21:06.539Z,1.98
2022-11-27T07:23:33.332Z,2.63
2022-11-27T07:26:30.995Z,2.30
2022-11-27T07:28:57.990Z,2.70
2022-11-27T07:31:28.233Z,2.65
2022-11-27T07:33:55.573Z,2.28
2022-11-27T07:36:24.750Z,2.30
2022-11-27T07:38:51.802Z,1.67
2022-11-27T07:41:18.825Z,2.00
2022-11-27T07:43:46.509Z,2.60
2022-11-27T07:46:14.420Z,3.55
2022-11-27T07:48:41.033Z,3.25
2022-11-27T07:51:09.367Z,2.60
2022-11-27T07:53:38.199Z,2.55
2022-11-27T07:56:06.590Z,2.88
2022-11-27T07:58:33.946Z,5.63
2022-11-27T08:01:00.691Z,3.70
2022-11-27T08:03:27.483Z,3.53
2022-11-27T08:05:54.079Z,3.63
2022-11-27T08:08:20.705Z,2.90
2022-11-27T08:10:47.307Z,3.10
2022-11-27T08:13:13.877Z,2.95
2022-11-27T08:15:40.432Z,3.90
2022-11-27T08:18:07.068Z,2.60
2022-11-27T08:20:33.766Z,2.63
2022-11-27T08:23:02.984Z,2.33
2022-11-27T08:25:30.249Z,2.35
2022-11-27T08:27:56.937Z,2.33
2022-11-27T08:30:23.782Z,2.65
2022-11-27T08:32:50.797Z,1.85
2022-11-27T08:35:17.611Z,1.80
2022-11-27T08:37:44.364Z,2.40
2022-11-27T08:40:11.384Z,2.00
2022-11-27T08:42:37.972Z,3.28
2022-11-27T08:45:04.765Z,3.20
2022-11-27T08:47:32.518Z,3.30
2022-11-27T08:49:59.102Z,3.15
2022-11-27T08:52:26.434Z,3.63
2022-11-27T08:54:57.327Z,2.90
2022-11-27T08:57:24.514Z,2.72
2022-11-27T08:59:51.156Z,3.60
2022-11-27T09:02:17.697Z,3.08
2022-11-27T09:04:44.379Z,2.90
2022-11-27T09:07:14.278Z,2.25
2022-11-27T09:09:41.279Z,1.88
2022-11-27T09:12:07.932Z,2.53
2022-11-27T09:14:34.486Z,2.45
2022-11-27T09:17:01.080Z,2.53
2022-11-27T09:19:27.732Z,2.42
2022-11-27T09:21:54.260Z,1.90
2022-11-27T09:24:20.811Z,2.08
2022-11-27T09:26:47.457Z,2.80
2022-11-27T09:29:14.233Z,2.03
2022-11-27T09:31:40.854Z,1.40
2022-11-27T09:34:07.553Z,2.35
2022-11-27T09:36:34.194Z,2.22
2022-11-27T09:39:00.839Z,1.80
2022-11-27T09:41:39.689Z,2.05
2022-11-27T09:44:30.232Z,2.28
2022-11-27T09:47:01.514Z,1.52
2022-11-27T09:49:44.174Z,1.95
2022-11-27T09:52:18.273Z,1.75
2022-11-27T09:55:00.430Z,1.70
2022-11-27T09:57:32.721Z,1.63
2022-11-27T10:00:04.325Z,1.85
2022-11-27T10:02:33.479Z,2.47
2022-11-27T10:05:13.722Z,1.77
2022-11-27T10:07:54.474Z,1.88
2022-11-27T10:10:29.050Z,1.80
2022-11-27T10:13:07.865Z,1.63
2022-11-27T10:15:37.462Z,2.03
2022-11-27T10:18:22.872Z,1.83
2022-11-27T10:20:54.327Z,1.58
2022-11-27T10:23:44.464Z,1.08
2022-11-27T10:26:22.700Z,1.13
2022-11-27T10:29:00.835Z,1.25
2022-11-27T10:31:43.045Z,1.20
2022-11-27T10:34:31.490Z,0.98
2022-11-27T10:37:05.658Z,1.00
2022-11-27T10:39:45.530Z,1.08
2022-11-27T10:42:18.766Z,0.90
2022-11-27T10:44:51.782Z,1.27
2022-11-27T10:47:22.889Z,1.20
2022-11-27T10:49:49.530Z,1.08
2022-11-27T10:52:19.304Z,1.10
2022-11-27T10:54:53.258Z,1.02
2022-11-27T10:57:34.742Z,0.88
2022-11-27T11:00:07.669Z,1.00
2022-11-27T11:02:38.594Z,0.90
2022-11-27T11:05:35.099Z,1.02
2022-11-27T11:08:17.778Z,0.85
2022-11-27T11:10:50.384Z,0.82
2022-11-27T11:13:23.810Z,1.02
2022-11-27T11:16:03.948Z,1.02
2022-11-27T11:18:32.698Z,0.80
2022-11-27T11:21:02.300Z,0.68
2022-11-27T11:23:35.541Z,0.80
2022-11-27T11:26:07.287Z,1.00
2022-11-27T11:28:41.518Z,0.77
2022-11-27T11:31:14.700Z,1.00
2022-11-27T11:33:52.471Z,1.00
2022-11-27T11:36:19.389Z,1.13
2022-11-27T11:38:47.580Z,1.08
2022-11-27T11:41:17.884Z,1.02
2022-11-27T11:43:54.709Z,1.30
2022-11-27T11:46:26.023Z,1.13
2022-11-27T11:48:53.868Z,1.02
2022-11-27T11:51:40.529Z,1.00
2022-11-27T11:54:21.731Z,1.13
2022-11-27T11:56:52.521Z,0.70
2022-11-27T12:00:02.822Z,0.80
2022-11-27T12:02:40.837Z,0.98
2022-11-27T12:05:13.427Z,1.20
2022-11-27T12:07:52.687Z,1.20
2022-11-27T12:10:24.526Z,0.90
2022-11-27T12:13:14.485Z,1.30
2022-11-27T12:15:49.865Z,1.40
2022-11-27T12:18:56.301Z,1.00
2022-11-27T12:21:44.169Z,1.35
2022-11-27T12:24:35.366Z,1.52
2022-11-27T12:27:23.161Z,1.40
2022-11-27T12:29:49.757Z,1.30
2022-11-27T12:32:28.625Z,1.38
2022-11-27T12:35:13.657Z,1.25
2022-11-27T12:37:43.185Z,1.63
2022-11-27T12:40:24.161Z,1.45
2022-11-27T12:43:04.385Z,1.48
2022-11-27T12:45:40.899Z,1.50
2022-11-27T12:48:25.607Z,1.45
2022-11-27T12:51:00.152Z,1.20
2022-11-27T12:53:35.060Z,1.20
2022-11-27T12:56:21.150Z,1.40
2022-11-27T12:59:02.318Z,1.27
2022-11-27T13:01:35.081Z,1.50
2022-11-27T13:04:11.606Z,1.30
2022-11-27T13:07:08.102Z,2.60
2022-11-27T13:09:42.417Z,3.90
2022-11-27T13:12:16.606Z,3.67
2022-11-27T13:14:52.435Z,3.92
2022-11-27T13:17:19.619Z,3.17
2022-11-27T13:19:49.267Z,4.15
2022-11-27T13:22:34.738Z,3.53
2022-11-27T13:25:02.219Z,3.38
2022-11-27T13:27:32.511Z,3.15
2022-11-27T13:30:03.137Z,3.15
2022-11-27T13:32:57.312Z,3.55
2022-11-27T13:35:43.303Z,3.55
2022-11-27T13:38:33.369Z,3.30
2022-11-27T13:41:05.449Z,3.50
2022-11-27T13:43:42.499Z,3.28
2022-11-27T13:46:18.370Z,3.25
2022-11-27T13:48:57.549Z,2.83
2022-11-27T13:51:36.852Z,3.35
2022-11-27T13:54:08.579Z,3.03
2022-11-27T13:56:35.301Z,3.30
2022-11-27T13:59:22.494Z,3.40
2022-11-27T14:02:06.217Z,3.28
2022-11-27T14:04:34.222Z,3.10
2022-11-27T14:07:06.277Z,3.60
2022-11-27T14:09:40.629Z,2.90
2022-11-27T14:12:18.369Z,2.90
2022-11-27T14:14:56.674Z,2.88
2022-11-27T14:17:45.877Z,3.38
2022-11-27T14:20:18.445Z,3.30
2022-11-27T14:23:10.071Z,3.15
2022-11-27T14:25:36.438Z,3.20
2022-11-27T14:28:14.936Z,3.45
2022-11-27T14:30:47.504Z,3.15
2022-11-27T14:33:24.379Z,3.42
2022-11-27T14:35:55.287Z,2.60
2022-11-27T14:38:22.909Z,3.55
2022-11-27T14:40:53.163Z,2.95
2022-11-27T14:43:26.221Z,3.35
2022-11-27T14:45:55.964Z,3.30
2022-11-27T14:48:25.877Z,3.63
2022-11-27T14:50:54.730Z,3.47
2022-11-27T14:53:24.671Z,3.88
2022-11-27T14:55:56.283Z,3.47
2022-11-27T15:00:55.263Z,3.88
2022-11-27T15:03:22.216Z,3.17
2022-11-27T15:06:07.533Z,3.33
2022-11-27T15:08:37.683Z,2.88
2022-11-27T15:11:05.742Z,3.15
2022-11-27T15:13:35.212Z,3.63
2022-11-27T15:16:14.104Z,2.80
2022-11-27T15:18:41.721Z,3.40
2022-11-27T15:21:16.503Z,3.35
2022-11-27T15:23:50.495Z,3.92
2022-11-27T15:26:29.365Z,3.00
2022-11-27T15:28:58.726Z,3.63
2022-11-27T15:31:28.448Z,3.05
2022-11-27T15:34:13.720Z,3.45
2022-11-27T15:36:43.217Z,2.35
2022-11-27T15:39:33.361Z,3.70
2022-11-27T15:42:02.555Z,3.38
2022-11-27T15:44:32.256Z,3.58
2022-11-27T15:47:02.175Z,4.38
2022-11-27T15:49:29.369Z,4.68
2022-11-27T15:51:57.000Z,4.28
2022-11-27T15:54:24.244Z,4.18
2022-11-27T15:56:51.155Z,3.50
2022-11-27T15:59:20.418Z,4.15
2022-11-27T16:01:47.897Z,4.22
2022-11-27T16:04:14.576Z,3.72
2022-11-27T16:06:41.219Z,4.30
2022-11-27T16:09:07.894Z,3.55
2022-11-27T16:11:34.738Z,4.28
2022-11-27T16:14:01.515Z,4.25
2022-11-27T16:16:28.218Z,6.07
2022-11-27T16:19:00.623Z,5.28
2022-11-27T16:21:29.835Z,4.85
2022-11-27T16:24:01.910Z,4.78
2022-11-27T16:28:56.133Z,5.40
2022-11-27T16:31:24.324Z,3.70
2022-11-27T16:33:51.585Z,5.05
2022-11-27T16:36:21.544Z,4.72
2022-11-27T16:38:48.888Z,8.52
2022-11-27T16:41:17.845Z,7.57
2022-11-27T16:43:47.405Z,6.18
2022-11-27T16:46:19.096Z,6.05
2022-11-27T16:48:48.945Z,6.15
2022-11-27T16:51:28.961Z,5.97
2022-11-27T16:53:57.962Z,6.03
2022-11-27T16:56:26.864Z,6.10
2022-11-27T16:58:59.393Z,5.13
2022-11-27T17:01:31.190Z,5.05
2022-11-27T17:03:58.181Z,4.88
2022-11-27T17:06:27.206Z,5.65
2022-11-27T17:08:54.948Z,4.47
2022-11-27T17:11:24.856Z,5.00
2022-11-27T17:13:52.773Z,4.55
2022-11-27T17:16:20.141Z,5.07
2022-11-27T17:18:47.410Z,5.65
2022-11-27T17:21:21.353Z,4.38
2022-11-27T17:23:47.936Z,5.30
2022-11-27T17:26:18.390Z,4.40
2022-11-27T17:28:45.460Z,3.55
2022-11-27T17:31:18.499Z,4.53
2022-11-27T17:33:45.774Z,4.10
2022-11-27T17:36:13.523Z,3.92
2022-11-27T17:38:40.235Z,3.28
2022-11-27T17:41:10.075Z,3.63
2022-11-27T17:43:38.064Z,3.70
2022-11-27T17:46:10.073Z,3.95
2022-11-27T17:48:39.006Z,4.25
2022-11-27T17:51:07.063Z,3.97
2022-11-27T17:53:34.593Z,3.75
2022-11-27T17:56:08.242Z,4.05
2022-11-27T17:58:35.466Z,4.25
2022-11-27T18:01:02.914Z,3.45
2022-11-27T18:03:29.750Z,3.58
2022-11-27T18:05:56.899Z,3.38
2022-11-27T18:08:24.053Z,4.30
2022-11-27T18:10:50.749Z,4.22
2022-11-27T18:13:18.459Z,4.22
2022-11-27T18:15:45.061Z,4.05
2022-11-27T18:18:11.674Z,4.80
2022-11-27T18:20:38.276Z,4.30
2022-11-27T18:23:05.116Z,5.35
2022-11-27T18:25:31.949Z,4.82
2022-11-27T18:27:58.767Z,4.78
2022-11-27T18:30:25.709Z,4.63
2022-11-27T18:32:52.327Z,5.00
2022-11-27T18:35:18.911Z,5.05
2022-11-27T18:37:45.492Z,4.63
2022-11-27T18:40:15.331Z,5.10
2022-11-27T18:42:41.966Z,4.13
2022-11-27T18:45:25.340Z,5.10
2022-11-27T18:47:55.425Z,5.38
2022-11-27T18:50:26.841Z,4.10
2022-11-27T18:52:56.490Z,4.25
2022-11-27T18:55:23.230Z,4.43
2022-11-27T18:57:49.812Z,4.20
2022-11-27T19:00:17.377Z,4.00
2022-11-27T19:02:44.145Z,3.08
2022-11-27T19:05:10.785Z,3.78
2022-11-27T19:07:37.529Z,3.38
2022-11-27T19:10:04.705Z,4.25
2022-11-27T19:12:31.322Z,4.18
2022-11-27T19:14:57.933Z,3.55
2022-11-27T19:17:28.003Z,4.97
2022-11-27T19:19:59.758Z,3.80
2022-11-27T19:22:26.446Z,4.68
2022-11-27T19:24:55.681Z,3.55
2022-11-27T19:27:22.658Z,3.50
2022-11-27T19:29:49.754Z,3.10
2022-11-27T19:32:16.771Z,3.35
2022-11-27T19:34:43.714Z,4.00
2022-11-27T19:37:11.189Z,3.05
2022-11-27T19:39:38.228Z,3.53
2022-11-27T19:42:05.345Z,3.25
2022-11-27T19:44:32.000Z,2.88
2022-11-27T19:46:58.893Z,3.20
2022-11-27T19:49:26.075Z,3.67
2022-11-27T19:51:52.724Z,2.97
2022-11-27T19:54:20.549Z,3.25
2022-11-27T19:56:48.499Z,3.55
2022-11-27T19:59:15.182Z,3.90
2022-11-27T20:01:42.337Z,3.25
2022-11-27T20:04:15.060Z,3.25
2022-11-27T20:06:42.939Z,3.17
2022-11-27T20:09:10.741Z,3.30
2022-11-27T20:11:39.318Z,2.90
2022-11-27T20:14:06.650Z,3.08
2022-11-27T20:16:34.254Z,3.10
2022-11-27T20:19:05.234Z,2.58
2022-11-27T20:21:34.157Z,3.55
2022-11-27T20:24:02.082Z,3.15
2022-11-27T20:26:30.504Z,3.25
2022-11-27T20:28:58.778Z,3.30
2022-11-27T20:31:29.132Z,3.35
2022-11-27T20:33:58.723Z,3.30
2022-11-27T20:36:26.007Z,3.33
2022-11-27T20:38:55.435Z,3.50
2022-11-27T20:41:23.878Z,3.17
2022-11-27T20:43:55.455Z,3.00
2022-11-27T20:46:23.140Z,2.97
2022-11-27T20:48:51.506Z,2.90
2022-11-27T20:51:21.008Z,3.10
2022-11-27T20:53:48.721Z,2.78
2022-11-27T20:56:17.215Z,2.83
2022-11-27T20:58:45.327Z,3.10
2022-11-27T21:01:14.938Z,3.17
2022-11-27T21:03:42.845Z,3.03
2022-11-27T21:06:09.669Z,2.95
2022-11-27T21:08:36.738Z,2.92
2022-11-27T21:11:15.774Z,2.58
2022-11-27T21:13:44.755Z,3.25
2022-11-27T21:16:13.832Z,2.88
2022-11-27T21:18:40.687Z,3.95
2022-11-27T21:21:09.631Z,2.70
2022-11-27T21:23:40.928Z,2.85
2022-11-27T21:26:09.384Z,3.50
2022-11-27T21:28:35.980Z,3.10
2022-11-27T21:31:09.770Z,3.45
2022-11-27T21:33:37.097Z,3.22
2022-11-27T21:36:04.773Z,3.40
2022-11-27T21:38:32.540Z,3.00
2022-11-27T21:40:59.107Z,3.42
2022-11-27T21:43:25.925Z,2.47
2022-11-27T21:45:52.565Z,3.42
2022-11-27T21:48:19.531Z,3.13
2022-11-27T21:50:46.473Z,3.90
2022-11-27T21:53:13.059Z,3.22
2022-11-27T21:55:43.209Z,3.20
2022-11-27T21:58:10.180Z,3.22
2022-11-27T22:00:37.169Z,3.50
2022-11-27T22:03:03.803Z,3.05
2022-11-27T22:05:30.675Z,3.78
2022-11-27T22:07:57.288Z,3.40
2022-11-27T22:10:23.939Z,3.35
2022-11-27T22:12:50.621Z,4.35
2022-11-27T22:15:17.262Z,3.83
2022-11-27T22:17:43.890Z,3.95
2022-11-27T22:20:11.147Z,3.85
2022-11-27T22:22:37.736Z,3.67
2022-11-27T22:25:05.317Z,3.75
2022-11-27T22:27:32.083Z,3.70
2022-11-27T22:29:58.748Z,4.28
2022-11-27T22:32:25.397Z,3.95
2022-11-27T22:34:52.133Z,3.33
2022-11-27T22:37:18.710Z,4.88
2022-11-27T22:39:45.344Z,4.55
2022-11-27T22:42:12.350Z,3.78
2022-11-27T22:44:39.410Z,3.45
2022-11-27T22:47:06.031Z,3.80
2022-11-27T22:49:32.638Z,3.40
2022-11-27T22:51:59.369Z,4.07
2022-11-27T22:54:26.009Z,3.97
2022-11-27T22:56:54.193Z,3.60
2022-11-27T22:59:36.091Z,4.68
2022-11-27T23:02:06.620Z,4.57
2022-11-27T23:04:34.336Z,3.95
2022-11-27T23:07:01.844Z,4.32
2022-11-27T23:09:29.154Z,3.67
2022-11-27T23:11:56.916Z,4.38
2022-11-27T23:14:24.630Z,4.35
2022-11-27T23:16:51.278Z,4.22
2022-11-27T23:19:17.883Z,4.28
2022-11-27T23:21:44.692Z,4.57
2022-11-27T23:24:14.060Z,4.15
2022-11-27T23:26:40.693Z,3.45
2022-11-27T23:29:07.609Z,4.03
2022-11-27T23:31:35.546Z,4.00
2022-11-27T23:34:13.498Z,4.32
2022-11-27T23:36:40.329Z,4.28
2022-11-27T23:39:08.698Z,4.20
2022-11-27T23:41:35.328Z,3.80
2022-11-27T23:44:02.245Z,3.90
2022-11-27T23:46:29.980Z,4.22
2022-11-27T23:48:58.366Z,4.40
2022-11-27T23:51:27.748Z,4.57
2022-11-27T23:53:54.649Z,5.10
2022-11-27T23:56:26.154Z,5.22
2022-11-27T23:58:55.154Z,4.30
